sensor_id;sensor_type;location;lat;lon;timestamp;P1;durP1;ratioP1;P2;durP2;ratioP2
30048;SDS011;16879;50.852;15.602;2023-10-09T00:00:12;15.63;;;9.43;;
30048;SDS011;16879;50.852;15.602;2023-10-09T00:03:01;15.32;;;9.90;;
30048;SDS011;16879;50.852;15.602;2023-10-09T00:05:30;15.60;;;9.50;;
30048;SDS011;16879;50.852;15.602;2023-10-09T00:08:14;19.30;;;10.80;;
30048;SDS011;16879;50.852;15.602;2023-10-09T00:10:49;15.80;;;9.65;;
30048;SDS011;16879;50.852;15.602;2023-10-09T00:13:25;16.05;;;9.40;;
30048;SDS011;16879;50.852;15.602;2023-10-09T00:16:04;18.17;;;10.15;;
30048;SDS011;16879;50.852;15.602;2023-10-09T00:18:39;17.45;;;11.68;;
30048;SDS011;16879;50.852;15.602;2023-10-09T00:21:15;17.45;;;11.30;;
30048;SDS011;16879;50.852;15.602;2023-10-09T00:23:45;13.07;;;9.53;;
30048;SDS011;16879;50.852;15.602;2023-10-09T00:26:21;16.60;;;10.70;;
30048;SDS011;16879;50.852;15.602;2023-10-09T00:28:48;18.55;;;11.90;;
30048;SDS011;16879;50.852;15.602;2023-10-09T00:31:16;20.20;;;11.23;;
30048;SDS011;16879;50.852;15.602;2023-10-09T00:33:51;20.30;;;10.77;;
30048;SDS011;16879;50.852;15.602;2023-10-09T00:36:17;13.45;;;9.50;;
30048;SDS011;16879;50.852;15.602;2023-10-09T00:38:53;15.60;;;10.60;;
30048;SDS011;16879;50.852;15.602;2023-10-09T00:41:19;14.68;;;10.88;;
30048;SDS011;16879;50.852;15.602;2023-10-09T00:43:49;15.02;;;10.45;;
30048;SDS011;16879;50.852;15.602;2023-10-09T00:46:20;14.02;;;10.27;;
30048;SDS011;16879;50.852;15.602;2023-10-09T00:48:53;18.02;;;11.43;;
30048;SDS011;16879;50.852;15.602;2023-10-09T00:51:26;15.40;;;9.75;;
30048;SDS011;16879;50.852;15.602;2023-10-09T00:53:56;15.98;;;10.05;;
30048;SDS011;16879;50.852;15.602;2023-10-09T00:56:31;12.85;;;10.48;;
30048;SDS011;16879;50.852;15.602;2023-10-09T00:59:04;13.13;;;9.32;;
30048;SDS011;16879;50.852;15.602;2023-10-09T01:01:40;18.77;;;10.55;;
30048;SDS011;16879;50.852;15.602;2023-10-09T01:04:11;12.00;;;8.55;;
30048;SDS011;16879;50.852;15.602;2023-10-09T01:06:43;16.42;;;11.77;;
30048;SDS011;16879;50.852;15.602;2023-10-09T01:09:11;18.25;;;10.63;;
30048;SDS011;16879;50.852;15.602;2023-10-09T01:11:39;17.85;;;10.43;;
30048;SDS011;16879;50.852;15.602;2023-10-09T01:14:28;14.70;;;9.35;;
30048;SDS011;16879;50.852;15.602;2023-10-09T01:16:56;16.75;;;10.27;;
30048;SDS011;16879;50.852;15.602;2023-10-09T01:19:22;13.93;;;9.13;;
30048;SDS011;16879;50.852;15.602;2023-10-09T01:21:49;14.00;;;9.55;;
30048;SDS011;16879;50.852;15.602;2023-10-09T01:24:16;13.23;;;8.70;;
30048;SDS011;16879;50.852;15.602;2023-10-09T01:26:44;13.80;;;9.73;;
30048;SDS011;16879;50.852;15.602;2023-10-09T01:29:18;13.10;;;9.65;;
30048;SDS011;16879;50.852;15.602;2023-10-09T01:31:46;15.60;;;9.73;;
30048;SDS011;16879;50.852;15.602;2023-10-09T01:34:29;11.75;;;8.90;;
30048;SDS011;16879;50.852;15.602;2023-10-09T01:37:10;16.40;;;9.60;;
30048;SDS011;16879;50.852;15.602;2023-10-09T01:39:40;13.23;;;9.30;;
30048;SDS011;16879;50.852;15.602;2023-10-09T01:42:07;11.02;;;8.80;;
30048;SDS011;16879;50.852;15.602;2023-10-09T01:44:35;18.63;;;10.05;;
30048;SDS011;16879;50.852;15.602;2023-10-09T01:47:08;17.95;;;9.68;;
30048;SDS011;16879;50.852;15.602;2023-10-09T01:49:39;12.32;;;8.77;;
30048;SDS011;16879;50.852;15.602;2023-10-09T01:52:14;11.32;;;7.65;;
30048;SDS011;16879;50.852;15.602;2023-10-09T01:54:46;11.52;;;8.80;;
30048;SDS011;16879;50.852;15.602;2023-10-09T01:57:18;12.20;;;8.32;;
30048;SDS011;16879;50.852;15.602;2023-10-09T01:59:48;15.32;;;9.48;;
30048;SDS011;16879;50.852;15.602;2023-10-09T02:02:15;14.80;;;10.65;;
30048;SDS011;16879;50.852;15.602;2023-10-09T02:04:55;15.15;;;9.02;;
30048;SDS011;16879;50.852;15.602;2023-10-09T02:07:39;13.32;;;8.70;;
30048;SDS011;16879;50.852;15.602;2023-10-09T02:10:13;10.30;;;7.45;;
30048;SDS011;16879;50.852;15.602;2023-10-09T02:13:01;14.55;;;9.52;;
30048;SDS011;16879;50.852;15.602;2023-10-09T02:15:43;17.58;;;9.70;;
30048;SDS011;16879;50.852;15.602;2023-10-09T02:18:32;13.73;;;8.57;;
30048;SDS011;16879;50.852;15.602;2023-10-09T02:23:27;14.88;;;8.77;;
30048;SDS011;16879;50.852;15.602;2023-10-09T02:26:14;11.15;;;8.20;;
30048;SDS011;16879;50.852;15.602;2023-10-09T02:28:50;13.15;;;8.95;;
30048;SDS011;16879;50.852;15.602;2023-10-09T02:31:29;13.25;;;9.15;;
30048;SDS011;16879;50.852;15.602;2023-10-09T02:34:05;10.55;;;7.25;;
30048;SDS011;16879;50.852;15.602;2023-10-09T02:36:33;14.40;;;8.85;;
30048;SDS011;16879;50.852;15.602;2023-10-09T02:39:09;13.90;;;8.68;;
30048;SDS011;16879;50.852;15.602;2023-10-09T02:41:57;10.73;;;8.20;;
30048;SDS011;16879;50.852;15.602;2023-10-09T02:44:45;12.13;;;8.73;;
30048;SDS011;16879;50.852;15.602;2023-10-09T02:47:17;11.82;;;7.68;;
30048;SDS011;16879;50.852;15.602;2023-10-09T02:49:54;13.77;;;7.90;;
30048;SDS011;16879;50.852;15.602;2023-10-09T02:52:25;12.00;;;7.68;;
30048;SDS011;16879;50.852;15.602;2023-10-09T02:54:57;13.43;;;8.45;;
30048;SDS011;16879;50.852;15.602;2023-10-09T02:57:38;11.48;;;7.85;;
30048;SDS011;16879;50.852;15.602;2023-10-09T03:00:07;12.10;;;9.00;;
30048;SDS011;16879;50.852;15.602;2023-10-09T03:02:54;11.35;;;8.05;;
30048;SDS011;16879;50.852;15.602;2023-10-09T03:05:23;12.38;;;7.80;;
30048;SDS011;16879;50.852;15.602;2023-10-09T03:07:53;11.50;;;7.72;;
30048;SDS011;16879;50.852;15.602;2023-10-09T03:10:21;11.10;;;7.72;;
30048;SDS011;16879;50.852;15.602;2023-10-09T03:12:47;14.18;;;7.57;;
30048;SDS011;16879;50.852;15.602;2023-10-09T03:15:18;9.43;;;7.22;;
30048;SDS011;16879;50.852;15.602;2023-10-09T03:17:45;9.32;;;6.95;;
30048;SDS011;16879;50.852;15.602;2023-10-09T03:20:13;12.43;;;7.90;;
30048;SDS011;16879;50.852;15.602;2023-10-09T03:22:42;10.25;;;8.30;;
30048;SDS011;16879;50.852;15.602;2023-10-09T03:25:10;16.65;;;9.20;;
30048;SDS011;16879;50.852;15.602;2023-10-09T03:27:42;12.45;;;8.57;;
30048;SDS011;16879;50.852;15.602;2023-10-09T03:30:15;15.77;;;8.77;;
30048;SDS011;16879;50.852;15.602;2023-10-09T03:32:47;13.23;;;8.93;;
30048;SDS011;16879;50.852;15.602;2023-10-09T03:35:19;10.43;;;7.65;;
30048;SDS011;16879;50.852;15.602;2023-10-09T03:37:58;12.65;;;8.60;;
30048;SDS011;16879;50.852;15.602;2023-10-09T03:40:46;11.27;;;7.57;;
30048;SDS011;16879;50.852;15.602;2023-10-09T03:43:16;10.77;;;7.93;;
30048;SDS011;16879;50.852;15.602;2023-10-09T03:45:42;11.70;;;8.57;;
30048;SDS011;16879;50.852;15.602;2023-10-09T03:48:17;12.10;;;7.82;;
30048;SDS011;16879;50.852;15.602;2023-10-09T03:50:51;11.13;;;8.32;;
30048;SDS011;16879;50.852;15.602;2023-10-09T03:53:38;14.13;;;8.85;;
30048;SDS011;16879;50.852;15.602;2023-10-09T03:56:05;9.07;;;8.05;;
30048;SDS011;16879;50.852;15.602;2023-10-09T03:58:38;10.85;;;8.10;;
30048;SDS011;16879;50.852;15.602;2023-10-09T04:01:11;10.82;;;7.28;;
30048;SDS011;16879;50.852;15.602;2023-10-09T04:03:47;9.50;;;7.25;;
30048;SDS011;16879;50.852;15.602;2023-10-09T04:06:13;9.45;;;6.72;;
30048;SDS011;16879;50.852;15.602;2023-10-09T04:08:43;9.93;;;7.53;;
30048;SDS011;16879;50.852;15.602;2023-10-09T04:11:15;10.90;;;7.47;;
30048;SDS011;16879;50.852;15.602;2023-10-09T04:13:44;8.63;;;6.45;;
30048;SDS011;16879;50.852;15.602;2023-10-09T04:16:14;12.68;;;8.65;;
30048;SDS011;16879;50.852;15.602;2023-10-09T04:19:02;10.40;;;7.53;;
30048;SDS011;16879;50.852;15.602;2023-10-09T04:21:36;11.15;;;8.15;;
30048;SDS011;16879;50.852;15.602;2023-10-09T04:26:47;12.25;;;6.28;;
30048;SDS011;16879;50.852;15.602;2023-10-09T04:29:19;8.10;;;6.72;;
30048;SDS011;16879;50.852;15.602;2023-10-09T04:32:04;8.05;;;5.85;;
30048;SDS011;16879;50.852;15.602;2023-10-09T04:34:33;9.23;;;6.07;;
30048;SDS011;16879;50.852;15.602;2023-10-09T04:37:14;9.38;;;5.25;;
30048;SDS011;16879;50.852;15.602;2023-10-09T04:40:03;8.07;;;5.43;;
30048;SDS011;16879;50.852;15.602;2023-10-09T04:42:59;5.50;;;4.55;;
30048;SDS011;16879;50.852;15.602;2023-10-09T04:45:31;7.25;;;4.70;;
30048;SDS011;16879;50.852;15.602;2023-10-09T04:48:09;7.72;;;4.53;;
30048;SDS011;16879;50.852;15.602;2023-10-09T04:50:36;7.07;;;4.57;;
30048;SDS011;16879;50.852;15.602;2023-10-09T04:53:13;6.13;;;3.90;;
30048;SDS011;16879;50.852;15.602;2023-10-09T04:55:42;6.63;;;4.75;;
30048;SDS011;16879;50.852;15.602;2023-10-09T04:58:23;8.68;;;6.07;;
30048;SDS011;16879;50.852;15.602;2023-10-09T05:00:57;9.75;;;6.53;;
30048;SDS011;16879;50.852;15.602;2023-10-09T05:03:23;7.22;;;4.57;;
30048;SDS011;16879;50.852;15.602;2023-10-09T05:06:04;7.50;;;5.50;;
30048;SDS011;16879;50.852;15.602;2023-10-09T05:08:49;7.18;;;5.38;;
30048;SDS011;16879;50.852;15.602;2023-10-09T05:11:21;7.05;;;5.05;;
30048;SDS011;16879;50.852;15.602;2023-10-09T05:14:21;5.65;;;4.22;;
30048;SDS011;16879;50.852;15.602;2023-10-09T05:17:04;6.90;;;4.20;;
30048;SDS011;16879;50.852;15.602;2023-10-09T05:19:34;8.70;;;5.35;;
30048;SDS011;16879;50.852;15.602;2023-10-09T05:22:29;5.00;;;4.07;;
30048;SDS011;16879;50.852;15.602;2023-10-09T05:25:01;5.18;;;3.97;;
30048;SDS011;16879;50.852;15.602;2023-10-09T05:27:28;6.63;;;4.00;;
30048;SDS011;16879;50.852;15.602;2023-10-09T05:30:13;7.25;;;4.55;;
30048;SDS011;16879;50.852;15.602;2023-10-09T05:32:52;5.25;;;3.90;;
30048;SDS011;16879;50.852;15.602;2023-10-09T05:35:23;4.15;;;3.40;;
30048;SDS011;16879;50.852;15.602;2023-10-09T05:38:08;8.30;;;3.70;;
30048;SDS011;16879;50.852;15.602;2023-10-09T05:40:49;12.27;;;4.03;;
30048;SDS011;16879;50.852;15.602;2023-10-09T05:43:19;4.95;;;3.63;;
30048;SDS011;16879;50.852;15.602;2023-10-09T05:46:03;3.88;;;2.97;;
30048;SDS011;16879;50.852;15.602;2023-10-09T05:48:34;4.22;;;3.47;;
30048;SDS011;16879;50.852;15.602;2023-10-09T05:51:03;4.53;;;3.50;;
30048;SDS011;16879;50.852;15.602;2023-10-09T05:53:37;5.22;;;4.22;;
30048;SDS011;16879;50.852;15.602;2023-10-09T05:56:10;5.50;;;3.70;;
30048;SDS011;16879;50.852;15.602;2023-10-09T05:58:55;4.72;;;3.45;;
30048;SDS011;16879;50.852;15.602;2023-10-09T06:01:39;5.05;;;3.40;;
30048;SDS011;16879;50.852;15.602;2023-10-09T06:04:24;3.80;;;3.22;;
30048;SDS011;16879;50.852;15.602;2023-10-09T06:07:08;3.60;;;3.00;;
30048;SDS011;16879;50.852;15.602;2023-10-09T06:09:39;5.40;;;2.90;;
30048;SDS011;16879;50.852;15.602;2023-10-09T06:12:15;3.72;;;2.92;;
30048;SDS011;16879;50.852;15.602;2023-10-09T06:15:15;5.25;;;4.30;;
30048;SDS011;16879;50.852;15.602;2023-10-09T06:17:59;7.18;;;5.13;;
30048;SDS011;16879;50.852;15.602;2023-10-09T06:20:45;13.55;;;7.13;;
30048;SDS011;16879;50.852;15.602;2023-10-09T06:23:29;15.50;;;7.90;;
30048;SDS011;16879;50.852;15.602;2023-10-09T06:28:49;14.10;;;9.65;;
30048;SDS011;16879;50.852;15.602;2023-10-09T06:31:36;12.07;;;8.77;;
30048;SDS011;16879;50.852;15.602;2023-10-09T06:34:20;11.60;;;7.82;;
30048;SDS011;16879;50.852;15.602;2023-10-09T06:36:57;12.15;;;7.25;;
30048;SDS011;16879;50.852;15.602;2023-10-09T06:39:34;7.18;;;5.95;;
30048;SDS011;16879;50.852;15.602;2023-10-09T06:42:16;6.47;;;5.78;;
30048;SDS011;16879;50.852;15.602;2023-10-09T06:45:02;5.28;;;4.53;;
30048;SDS011;16879;50.852;15.602;2023-10-09T06:47:55;8.18;;;5.53;;
30048;SDS011;16879;50.852;15.602;2023-10-09T06:50:21;5.50;;;4.68;;
30048;SDS011;16879;50.852;15.602;2023-10-09T06:52:51;8.13;;;5.45;;
30048;SDS011;16879;50.852;15.602;2023-10-09T06:55:36;8.40;;;5.95;;
30048;SDS011;16879;50.852;15.602;2023-10-09T06:58:16;7.82;;;5.15;;
30048;SDS011;16879;50.852;15.602;2023-10-09T07:00:52;7.85;;;5.78;;
30048;SDS011;16879;50.852;15.602;2023-10-09T07:03:37;6.75;;;5.60;;
30048;SDS011;16879;50.852;15.602;2023-10-09T07:06:17;8.35;;;6.43;;
30048;SDS011;16879;50.852;15.602;2023-10-09T07:09:10;7.32;;;5.40;;
30048;SDS011;16879;50.852;15.602;2023-10-09T07:11:43;8.77;;;6.38;;
30048;SDS011;16879;50.852;15.602;2023-10-09T07:14:23;7.85;;;5.70;;
30048;SDS011;16879;50.852;15.602;2023-10-09T07:16:59;6.53;;;5.70;;
30048;SDS011;16879;50.852;15.602;2023-10-09T07:19:30;9.90;;;6.95;;
30048;SDS011;16879;50.852;15.602;2023-10-09T07:22:02;8.63;;;6.50;;
30048;SDS011;16879;50.852;15.602;2023-10-09T07:24:29;7.93;;;6.00;;
30048;SDS011;16879;50.852;15.602;2023-10-09T07:27:14;6.57;;;5.47;;
30048;SDS011;16879;50.852;15.602;2023-10-09T07:29:45;8.15;;;6.32;;
30048;SDS011;16879;50.852;15.602;2023-10-09T07:32:15;9.73;;;6.93;;
30048;SDS011;16879;50.852;15.602;2023-10-09T07:34:50;25.92;;;11.20;;
30048;SDS011;16879;50.852;15.602;2023-10-09T07:37:22;13.70;;;7.45;;
30048;SDS011;16879;50.852;15.602;2023-10-09T07:39:51;9.23;;;6.65;;
30048;SDS011;16879;50.852;15.602;2023-10-09T07:42:26;8.35;;;5.88;;
30048;SDS011;16879;50.852;15.602;2023-10-09T07:45:19;7.95;;;5.57;;
30048;SDS011;16879;50.852;15.602;2023-10-09T07:47:48;8.38;;;5.63;;
30048;SDS011;16879;50.852;15.602;2023-10-09T07:50:37;11.85;;;9.60;;
30048;SDS011;16879;50.852;15.602;2023-10-09T07:53:16;8.88;;;6.03;;
30048;SDS011;16879;50.852;15.602;2023-10-09T07:55:52;10.15;;;6.80;;
30048;SDS011;16879;50.852;15.602;2023-10-09T07:58:31;6.20;;;4.85;;
30048;SDS011;16879;50.852;15.602;2023-10-09T08:01:11;10.50;;;5.45;;
30048;SDS011;16879;50.852;15.602;2023-10-09T08:03:48;7.60;;;5.18;;
30048;SDS011;16879;50.852;15.602;2023-10-09T08:06:25;8.48;;;6.43;;
30048;SDS011;16879;50.852;15.602;2023-10-09T08:09:04;8.77;;;6.38;;
30048;SDS011;16879;50.852;15.602;2023-10-09T08:11:39;5.93;;;5.32;;
30048;SDS011;16879;50.852;15.602;2023-10-09T08:14:12;11.80;;;9.20;;
30048;SDS011;16879;50.852;15.602;2023-10-09T08:16:51;10.60;;;5.65;;
30048;SDS011;16879;50.852;15.602;2023-10-09T08:19:34;9.60;;;6.25;;
30048;SDS011;16879;50.852;15.602;2023-10-09T08:22:17;4.78;;;4.38;;
30048;SDS011;16879;50.852;15.602;2023-10-09T08:25:06;3.00;;;2.70;;
30048;SDS011;16879;50.852;15.602;2023-10-09T08:27:33;5.30;;;3.65;;
30048;SDS011;16879;50.852;15.602;2023-10-09T08:29:59;7.13;;;3.20;;
30048;SDS011;16879;50.852;15.602;2023-10-09T08:32:50;3.90;;;3.15;;
30048;SDS011;16879;50.852;15.602;2023-10-09T08:35:29;4.47;;;3.67;;
30048;SDS011;16879;50.852;15.602;2023-10-09T08:37:58;6.05;;;4.20;;
30048;SDS011;16879;50.852;15.602;2023-10-09T08:40:35;5.50;;;4.00;;
30048;SDS011;16879;50.852;15.602;2023-10-09T08:43:17;12.73;;;8.68;;
30048;SDS011;16879;50.852;15.602;2023-10-09T08:45:47;14.52;;;9.95;;
30048;SDS011;16879;50.852;15.602;2023-10-09T08:48:14;7.65;;;5.85;;
30048;SDS011;16879;50.852;15.602;2023-10-09T08:50:52;6.78;;;5.38;;
30048;SDS011;16879;50.852;15.602;2023-10-09T08:53:22;3.72;;;3.25;;
30048;SDS011;16879;50.852;15.602;2023-10-09T08:55:56;12.98;;;7.07;;
30048;SDS011;16879;50.852;15.602;2023-10-09T08:58:24;8.60;;;6.15;;
30048;SDS011;16879;50.852;15.602;2023-10-09T09:00:51;10.32;;;6.45;;
30048;SDS011;16879;50.852;15.602;2023-10-09T09:03:20;10.10;;;8.50;;
30048;SDS011;16879;50.852;15.602;2023-10-09T09:05:58;5.40;;;4.15;;
30048;SDS011;16879;50.852;15.602;2023-10-09T09:08:30;4.72;;;3.90;;
30048;SDS011;16879;50.852;15.602;2023-10-09T09:11:00;4.75;;;3.90;;
30048;SDS011;16879;50.852;15.602;2023-10-09T09:13:48;4.20;;;3.78;;
30048;SDS011;16879;50.852;15.602;2023-10-09T09:16:31;4.00;;;3.53;;
30048;SDS011;16879;50.852;15.602;2023-10-09T09:19:02;4.32;;;3.33;;
30048;SDS011;16879;50.852;15.602;2023-10-09T09:21:38;5.90;;;5.30;;
30048;SDS011;16879;50.852;15.602;2023-10-09T09:24:07;4.75;;;3.80;;
30048;SDS011;16879;50.852;15.602;2023-10-09T09:27:02;5.63;;;5.18;;
30048;SDS011;16879;50.852;15.602;2023-10-09T09:32:05;8.45;;;6.70;;
30048;SDS011;16879;50.852;15.602;2023-10-09T09:34:48;9.88;;;8.88;;
30048;SDS011;16879;50.852;15.602;2023-10-09T09:37:21;7.53;;;6.55;;
30048;SDS011;16879;50.852;15.602;2023-10-09T09:39:54;9.15;;;6.95;;
30048;SDS011;16879;50.852;15.602;2023-10-09T09:42:27;10.35;;;7.75;;
30048;SDS011;16879;50.852;15.602;2023-10-09T09:44:56;13.60;;;9.38;;
30048;SDS011;16879;50.852;15.602;2023-10-09T09:47:23;13.38;;;10.15;;
30048;SDS011;16879;50.852;15.602;2023-10-09T09:49:52;12.95;;;9.68;;
30048;SDS011;16879;50.852;15.602;2023-10-09T09:52:30;10.30;;;8.43;;
30048;SDS011;16879;50.852;15.602;2023-10-09T09:55:04;9.35;;;7.50;;
30048;SDS011;16879;50.852;15.602;2023-10-09T09:57:39;8.80;;;6.80;;
30048;SDS011;16879;50.852;15.602;2023-10-09T10:00:09;10.85;;;9.68;;
30048;SDS011;16879;50.852;15.602;2023-10-09T10:02:53;10.10;;;8.63;;
30048;SDS011;16879;50.852;15.602;2023-10-09T10:05:23;6.97;;;5.78;;
30048;SDS011;16879;50.852;15.602;2023-10-09T10:07:56;9.38;;;8.48;;
30048;SDS011;16879;50.852;15.602;2023-10-09T10:10:35;7.00;;;6.15;;
30048;SDS011;16879;50.852;15.602;2023-10-09T10:13:15;5.68;;;5.07;;
30048;SDS011;16879;50.852;15.602;2023-10-09T10:15:59;6.00;;;5.38;;
30048;SDS011;16879;50.852;15.602;2023-10-09T10:18:51;5.22;;;3.80;;
30048;SDS011;16879;50.852;15.602;2023-10-09T10:21:19;4.30;;;3.90;;
30048;SDS011;16879;50.852;15.602;2023-10-09T10:29:43;14.30;;;12.25;;
30048;SDS011;16879;50.852;15.602;2023-10-09T10:32:11;14.77;;;12.95;;
30048;SDS011;16879;50.852;15.602;2023-10-09T10:40:04;7.75;;;6.25;;
30048;SDS011;16879;50.852;15.602;2023-10-09T10:42:46;7.22;;;6.38;;
30048;SDS011;16879;50.852;15.602;2023-10-09T10:45:22;10.63;;;8.23;;
30048;SDS011;16879;50.852;15.602;2023-10-09T10:48:03;8.63;;;7.65;;
30048;SDS011;16879;50.852;15.602;2023-10-09T10:50:34;17.80;;;10.98;;
30048;SDS011;16879;50.852;15.602;2023-10-09T10:53:13;14.68;;;9.40;;
30048;SDS011;16879;50.852;15.602;2023-10-09T10:55:53;15.57;;;9.75;;
30048;SDS011;16879;50.852;15.602;2023-10-09T10:58:43;9.90;;;8.15;;
30048;SDS011;16879;50.852;15.602;2023-10-09T11:01:32;10.23;;;8.85;;
30048;SDS011;16879;50.852;15.602;2023-10-09T11:04:18;9.02;;;7.30;;
30048;SDS011;16879;50.852;15.602;2023-10-09T11:07:00;8.13;;;7.13;;
30048;SDS011;16879;50.852;15.602;2023-10-09T11:09:56;8.70;;;7.18;;
30048;SDS011;16879;50.852;15.602;2023-10-09T11:12:29;7.45;;;4.88;;
30048;SDS011;16879;50.852;15.602;2023-10-09T11:15:31;6.00;;;5.13;;
30048;SDS011;16879;50.852;15.602;2023-10-09T11:18:09;7.72;;;6.10;;
30048;SDS011;16879;50.852;15.602;2023-10-09T11:20:50;6.15;;;5.55;;
30048;SDS011;16879;50.852;15.602;2023-10-09T11:23:32;4.60;;;4.10;;
30048;SDS011;16879;50.852;15.602;2023-10-09T11:25:58;5.68;;;5.18;;
30048;SDS011;16879;50.852;15.602;2023-10-09T11:28:43;5.55;;;5.03;;
30048;SDS011;16879;50.852;15.602;2023-10-09T11:31:22;8.40;;;7.13;;
30048;SDS011;16879;50.852;15.602;2023-10-09T11:33:49;13.60;;;10.55;;
30048;SDS011;16879;50.852;15.602;2023-10-09T11:36:17;11.35;;;9.20;;
30048;SDS011;16879;50.852;15.602;2023-10-09T11:38:58;13.77;;;9.15;;
30048;SDS011;16879;50.852;15.602;2023-10-09T11:41:43;12.40;;;8.88;;
30048;SDS011;16879;50.852;15.602;2023-10-09T11:44:10;14.55;;;9.85;;
30048;SDS011;16879;50.852;15.602;2023-10-09T11:46:59;13.18;;;10.35;;
30048;SDS011;16879;50.852;15.602;2023-10-09T11:49:50;16.17;;;10.60;;
30048;SDS011;16879;50.852;15.602;2023-10-09T11:53:16;17.65;;;12.90;;
30048;SDS011;16879;50.852;15.602;2023-10-09T11:55:59;36.38;;;19.45;;
30048;SDS011;16879;50.852;15.602;2023-10-09T11:58:25;48.03;;;24.08;;
30048;SDS011;16879;50.852;15.602;2023-10-09T12:00:55;51.13;;;25.27;;
30048;SDS011;16879;50.852;15.602;2023-10-09T12:03:29;53.72;;;25.55;;
30048;SDS011;16879;50.852;15.602;2023-10-09T12:05:57;47.35;;;23.85;;
30048;SDS011;16879;50.852;15.602;2023-10-09T12:10:57;21.23;;;14.05;;
30048;SDS011;16879;50.852;15.602;2023-10-09T12:13:23;18.88;;;11.75;;
30048;SDS011;16879;50.852;15.602;2023-10-09T12:15:51;24.02;;;15.82;;
30048;SDS011;16879;50.852;15.602;2023-10-09T12:18:18;21.52;;;14.50;;
30048;SDS011;16879;50.852;15.602;2023-10-09T12:20:45;24.63;;;14.85;;
30048;SDS011;16879;50.852;15.602;2023-10-09T12:23:16;27.85;;;17.67;;
30048;SDS011;16879;50.852;15.602;2023-10-09T12:25:43;37.17;;;24.33;;
30048;SDS011;16879;50.852;15.602;2023-10-09T12:28:12;32.72;;;21.80;;
30048;SDS011;16879;50.852;15.602;2023-10-09T12:30:38;24.13;;;18.52;;
30048;SDS011;16879;50.852;15.602;2023-10-09T12:33:08;27.05;;;19.27;;
30048;SDS011;16879;50.852;15.602;2023-10-09T12:35:38;27.42;;;18.85;;
30048;SDS011;16879;50.852;15.602;2023-10-09T12:38:05;28.95;;;20.55;;
30048;SDS011;16879;50.852;15.602;2023-10-09T12:40:39;45.63;;;29.77;;
30048;SDS011;16879;50.852;15.602;2023-10-09T12:43:06;34.47;;;24.60;;
30048;SDS011;16879;50.852;15.602;2023-10-09T12:45:40;28.42;;;20.90;;
30048;SDS011;16879;50.852;15.602;2023-10-09T12:48:08;29.13;;;19.50;;
30048;SDS011;16879;50.852;15.602;2023-10-09T12:50:37;30.33;;;21.80;;
30048;SDS011;16879;50.852;15.602;2023-10-09T12:53:08;24.88;;;20.52;;
30048;SDS011;16879;50.852;15.602;2023-10-09T12:55:34;26.83;;;19.75;;
30048;SDS011;16879;50.852;15.602;2023-10-09T12:58:01;26.63;;;20.73;;
30048;SDS011;16879;50.852;15.602;2023-10-09T13:00:40;40.83;;;31.55;;
30048;SDS011;16879;50.852;15.602;2023-10-09T13:03:14;34.95;;;30.17;;
30048;SDS011;16879;50.852;15.602;2023-10-09T13:08:23;60.60;;;45.42;;
30048;SDS011;16879;50.852;15.602;2023-10-09T13:10:52;46.55;;;35.83;;
30048;SDS011;16879;50.852;15.602;2023-10-09T13:13:28;46.50;;;32.50;;
30048;SDS011;16879;50.852;15.602;2023-10-09T13:16:22;66.07;;;45.40;;
30048;SDS011;16879;50.852;15.602;2023-10-09T13:18:49;58.83;;;40.67;;
30048;SDS011;16879;50.852;15.602;2023-10-09T13:21:16;59.67;;;40.83;;
30048;SDS011;16879;50.852;15.602;2023-10-09T13:23:42;67.40;;;43.70;;
30048;SDS011;16879;50.852;15.602;2023-10-09T13:26:14;87.38;;;48.13;;
30048;SDS011;16879;50.852;15.602;2023-10-09T13:28:47;72.45;;;43.30;;
30048;SDS011;16879;50.852;15.602;2023-10-09T13:31:14;62.17;;;41.20;;
30048;SDS011;16879;50.852;15.602;2023-10-09T13:33:42;68.63;;;45.63;;
30048;SDS011;16879;50.852;15.602;2023-10-09T13:36:09;53.65;;;36.08;;
30048;SDS011;16879;50.852;15.602;2023-10-09T13:38:44;51.40;;;35.70;;
30048;SDS011;16879;50.852;15.602;2023-10-09T13:41:13;50.42;;;34.60;;
30048;SDS011;16879;50.852;15.602;2023-10-09T13:43:39;59.72;;;46.45;;
30048;SDS011;16879;50.852;15.602;2023-10-09T13:46:09;57.85;;;41.63;;
30048;SDS011;16879;50.852;15.602;2023-10-09T13:48:37;49.00;;;34.05;;
30048;SDS011;16879;50.852;15.602;2023-10-09T13:51:09;38.25;;;29.58;;
30048;SDS011;16879;50.852;15.602;2023-10-09T13:53:42;43.60;;;31.10;;
30048;SDS011;16879;50.852;15.602;2023-10-09T13:56:16;41.95;;;27.85;;
30048;SDS011;16879;50.852;15.602;2023-10-09T14:01:13;43.30;;;29.17;;
30048;SDS011;16879;50.852;15.602;2023-10-09T14:03:59;45.95;;;32.50;;
30048;SDS011;16879;50.852;15.602;2023-10-09T14:06:26;38.33;;;28.95;;
30048;SDS011;16879;50.852;15.602;2023-10-09T14:08:57;35.78;;;25.55;;
30048;SDS011;16879;50.852;15.602;2023-10-09T14:11:23;43.92;;;30.10;;
30048;SDS011;16879;50.852;15.602;2023-10-09T14:13:50;32.42;;;22.17;;
30048;SDS011;16879;50.852;15.602;2023-10-09T14:16:17;40.47;;;29.33;;
30048;SDS011;16879;50.852;15.602;2023-10-09T14:18:53;32.55;;;23.60;;
30048;SDS011;16879;50.852;15.602;2023-10-09T14:21:25;30.08;;;21.85;;
30048;SDS011;16879;50.852;15.602;2023-10-09T14:23:54;53.70;;;34.13;;
30048;SDS011;16879;50.852;15.602;2023-10-09T14:26:28;30.48;;;21.00;;
30048;SDS011;16879;50.852;15.602;2023-10-09T14:28:54;31.33;;;22.05;;
30048;SDS011;16879;50.852;15.602;2023-10-09T14:31:22;23.33;;;17.75;;
30048;SDS011;16879;50.852;15.602;2023-10-09T14:33:55;26.60;;;20.27;;
30048;SDS011;16879;50.852;15.602;2023-10-09T14:36:21;22.08;;;17.85;;
30048;SDS011;16879;50.852;15.602;2023-10-09T14:38:51;26.02;;;18.70;;
30048;SDS011;16879;50.852;15.602;2023-10-09T14:41:21;21.58;;;16.67;;
30048;SDS011;16879;50.852;15.602;2023-10-09T14:43:52;28.77;;;20.33;;
30048;SDS011;16879;50.852;15.602;2023-10-09T14:46:18;20.73;;;14.50;;
30048;SDS011;16879;50.852;15.602;2023-10-09T14:48:51;15.98;;;13.25;;
30048;SDS011;16879;50.852;15.602;2023-10-09T14:51:21;15.60;;;12.82;;
30048;SDS011;16879;50.852;15.602;2023-10-09T14:53:56;13.60;;;10.48;;
30048;SDS011;16879;50.852;15.602;2023-10-09T14:56:25;19.63;;;13.98;;
30048;SDS011;16879;50.852;15.602;2023-10-09T14:59:00;21.52;;;15.10;;
30048;SDS011;16879;50.852;15.602;2023-10-09T15:01:26;30.92;;;20.55;;
30048;SDS011;16879;50.852;15.602;2023-10-09T15:03:59;23.45;;;18.15;;
30048;SDS011;16879;50.852;15.602;2023-10-09T15:06:28;18.10;;;13.68;;
30048;SDS011;16879;50.852;15.602;2023-10-09T15:08:56;18.75;;;14.55;;
30048;SDS011;16879;50.852;15.602;2023-10-09T15:11:24;13.27;;;9.85;;
30048;SDS011;16879;50.852;15.602;2023-10-09T15:13:54;10.07;;;8.50;;
30048;SDS011;16879;50.852;15.602;2023-10-09T15:16:23;16.58;;;12.95;;
30048;SDS011;16879;50.852;15.602;2023-10-09T15:18:52;17.17;;;12.45;;
30048;SDS011;16879;50.852;15.602;2023-10-09T15:21:19;23.60;;;17.25;;
30048;SDS011;16879;50.852;15.602;2023-10-09T15:23:54;62.15;;;41.70;;
30048;SDS011;16879;50.852;15.602;2023-10-09T15:26:20;48.03;;;34.00;;
30048;SDS011;16879;50.852;15.602;2023-10-09T15:28:48;37.33;;;27.50;;
30048;SDS011;16879;50.852;15.602;2023-10-09T15:31:15;37.70;;;28.48;;
30048;SDS011;16879;50.852;15.602;2023-10-09T15:33:42;32.05;;;24.85;;